Time;durP1;ratioP1;P1;durP2;ratioP2;P2;SDS_P1;SDS_P2;PMS_P1;PMS_P2;Temp;Humidity;BMP_temperature;BMP_pressure;BME280_temperature;BME280_humidity;BME280_pressure;Samples;Min_cycle;Max_cycle;Signal;HPM_P1;HPM_P2
2023/10/01 00:01:21;;;;;;;20.13;12.30;;;14.90;99.90;;;;;;7371130;19;20051;-62
2023/10/01 00:03:47;;;;;;;22.73;11.98;;;14.90;99.90;;;;;;7374041;19;20022;-63
2023/10/01 00:06:14;;;;;;;19.42;13.15;;;14.90;99.90;;;;;;7366484;19;20031;-62
2023/10/01 00:08:41;;;;;;;19.30;11.95;;;14.90;99.90;;;;;;7370138;19;20030;-62
2023/10/01 00:11:08;;;;;;;22.50;13.63;;;14.80;99.90;;;;;;7370031;19;20051;-62
2023/10/01 00:13:35;;;;;;;17.02;13.05;;;14.80;99.90;;;;;;7378062;19;20716;-62
2023/10/01 00:16:02;;;;;;;19.05;12.95;;;14.70;99.90;;;;;;7379452;19;20022;-62
2023/10/01 00:18:28;;;;;;;19.65;13.20;;;14.60;99.90;;;;;;7376412;19;20059;-62
2023/10/01 00:21:18;;;;;;;18.27;13.15;;;14.60;99.90;;;;;;7376014;19;20453;-63
2023/10/01 00:23:46;;;;;;;20.85;14.00;;;14.50;99.90;;;;;;7376784;19;20021;-62
2023/10/01 00:26:12;;;;;;;21.30;13.25;;;14.50;99.90;;;;;;7375769;19;20142;-62
2023/10/01 00:28:40;;;;;;;20.92;14.15;;;14.50;99.90;;;;;;7374349;19;20018;-71
2023/10/01 00:31:07;;;;;;;19.88;13.20;;;14.50;99.90;;;;;;7378553;19;20026;-70
2023/10/01 00:33:33;;;;;;;19.27;13.82;;;14.50;99.90;;;;;;7373937;19;20022;-71
2023/10/01 00:36:00;;;;;;;20.80;14.73;;;14.50;99.90;;;;;;7376849;19;20018;-70
2023/10/01 00:38:27;;;;;;;20.42;13.73;;;14.50;99.90;;;;;;7369832;19;20019;-70
2023/10/01 00:40:54;;;;;;;18.83;13.68;;;14.50;99.90;;;;;;7367782;19;20019;-71
2023/10/01 00:43:29;;;;;;;21.88;13.98;;;14.50;99.90;;;;;;7365645;19;20028;-70
2023/10/01 00:45:56;;;;;;;22.73;14.13;;;14.40;99.90;;;;;;7365413;19;20018;-70
2023/10/01 00:48:23;;;;;;;22.20;13.75;;;14.50;99.90;;;;;;7370324;19;20033;-70
2023/10/01 00:50:52;;;;;;;18.10;13.48;;;14.40;99.90;;;;;;7368776;19;20041;-70
2023/10/01 00:53:19;;;;;;;21.35;13.88;;;14.40;99.90;;;;;;7357728;19;20135;-70
2023/10/01 00:55:45;;;;;;;19.55;13.05;;;14.30;99.90;;;;;;7367328;19;20018;-70
2023/10/01 00:58:12;;;;;;;24.58;15.07;;;14.30;99.90;;;;;;7374471;19;20018;-70
2023/10/01 01:00:38;;;;;;;22.77;14.70;;;14.30;99.90;;;;;;7373678;19;20014;-70
2023/10/01 01:05:41;;;;;;;20.45;13.45;;;14.40;99.90;;;;;;7378355;19;20433;-62
2023/10/01 01:08:56;;;;;;;20.50;14.30;;;14.40;99.90;;;;;;7377347;19;20779;-70
2023/10/01 01:10:58;;;;;;;18.85;13.50;;;14.40;99.90;;;;;;7375378;19;20501;-71
2023/10/01 01:13:28;;;;;;;18.83;13.85;;;14.50;99.90;;;;;;7375500;19;20791;-70
2023/10/01 01:15:57;;;;;;;22.45;15.32;;;14.50;99.90;;;;;;7377183;19;20011;-72
2023/10/01 01:18:26;;;;;;;19.70;14.82;;;14.50;99.90;;;;;;7374307;19;20045;-70
2023/10/01 01:20:57;;;;;;;17.58;12.95;;;14.50;99.90;;;;;;7374523;19;20551;-70
2023/10/01 01:23:24;;;;;;;;;;;14.60;99.90;;;;;;7374133;19;20346;-71
2023/10/01 01:25:52;;;;;;;19.95;14.27;;;14.60;99.90;;;;;;7374647;19;20504;-63
2023/10/01 01:28:27;;;;;;;21.02;15.02;;;14.60;99.90;;;;;;7374505;19;20465;-62
2023/10/01 01:30:55;;;;;;;18.90;14.00;;;14.60;99.90;;;;;;7372084;19;20034;-70
2023/10/01 01:33:21;;;;;;;19.85;14.32;;;14.60;99.90;;;;;;7360546;19;20026;-71
2023/10/01 01:35:49;;;;;;;20.27;14.45;;;14.70;99.90;;;;;;7368781;19;20026;-70
2023/10/01 01:38:15;;;;;;;20.08;14.25;;;14.60;99.90;;;;;;7363993;19;20086;-71
2023/10/01 01:40:42;;;;;;;18.50;14.88;;;14.70;99.90;;;;;;7365970;19;20024;-71
2023/10/01 01:43:23;;;;;;;19.73;14.25;;;14.70;99.90;;;;;;7366564;19;20048;-71
2023/10/01 01:45:54;;;;;;;18.17;13.95;;;14.70;99.90;;;;;;7363682;19;20030;-71
2023/10/01 01:50:58;;;;;;;16.15;14.45;;;14.70;99.90;;;;;;7369232;19;20635;-70
2023/10/01 01:53:34;;;;;;;18.08;14.15;;;14.70;99.90;;;;;;7367700;19;20026;-71
2023/10/01 01:56:09;;;;;;;19.95;14.73;;;14.70;99.90;;;;;;7370433;19;20655;-71
2023/10/01 01:58:41;;;;;;;21.02;15.07;;;14.80;99.90;;;;;;7370669;19;20053;-71
2023/10/01 02:01:18;;;;;;;18.33;14.88;;;14.70;99.90;;;;;;7367473;19;20027;-71
2023/10/01 02:03:51;;;;;;;18.88;14.88;;;14.80;99.90;;;;;;7372391;19;20018;-71
2023/10/01 02:06:27;;;;;;;19.83;14.43;;;14.80;99.90;;;;;;7370799;19;20010;-71
2023/10/01 02:08:57;;;;;;;16.60;14.55;;;14.80;99.90;;;;;;7370532;19;20018;-71
2023/10/01 02:11:23;;;;;;;16.98;14.10;;;14.80;99.90;;;;;;7367643;19;20021;-71
2023/10/01 02:13:51;;;;;;;20.80;14.23;;;14.80;99.90;;;;;;7371850;19;20378;-71
2023/10/01 02:16:32;;;;;;;18.67;13.95;;;14.80;99.90;;;;;;7369527;19;20023;-71
2023/10/01 02:19:12;;;;;;;18.53;15.33;;;14.80;99.90;;;;;;7366419;19;20366;-71
2023/10/01 02:27:42;;;;;;;21.13;14.73;;;14.80;99.90;;;;;;7368178;19;20022;-71
2023/10/01 02:30:14;;;;;;;18.25;15.10;;;14.70;99.90;;;;;;7367320;19;20022;-71
2023/10/01 02:33:24;;;;;;;18.38;14.82;;;14.70;99.90;;;;;;7370467;19;20070;-71
2023/10/01 02:35:35;;;;;;;20.58;14.60;;;14.70;99.90;;;;;;7371680;19;20022;-71
2023/10/01 02:38:07;;;;;;;18.83;14.65;;;14.70;99.90;;;;;;7367122;19;20366;-70
2023/10/01 02:40:37;;;;;;;18.60;14.52;;;14.70;99.90;;;;;;7373177;19;20094;-71
2023/10/01 02:43:07;;;;;;;18.48;14.48;;;14.70;99.90;;;;;;7369090;19;20023;-71
2023/10/01 02:45:35;;;;;;;17.70;14.32;;;14.70;99.90;;;;;;7371550;19;20057;-72
2023/10/01 02:48:16;;;;;;;20.88;15.45;;;14.70;99.90;;;;;;7371184;19;20025;-63
2023/10/01 02:50:52;;;;;;;19.33;14.13;;;14.70;99.90;;;;;;7370156;19;20078;-73
2023/10/01 02:53:20;;;;;;;16.58;13.88;;;14.70;99.90;;;;;;7366187;19;20375;-71
2023/10/01 02:55:47;;;;;;;19.60;15.43;;;14.70;99.90;;;;;;7364833;19;20019;-70
2023/10/01 02:58:33;;;;;;;19.25;13.65;;;14.70;99.90;;;;;;7369164;19;20093;-70
2023/10/01 03:01:05;;;;;;;18.27;15.30;;;14.70;99.90;;;;;;7364230;19;20564;-71
2023/10/01 03:03:31;;;;;;;19.48;15.63;;;14.70;99.90;;;;;;7365333;19;20481;-71
2023/10/01 03:05:58;;;;;;;19.75;15.45;;;14.70;99.90;;;;;;7361984;19;20044;-69
2023/10/01 03:08:59;;;;;;;25.52;16.30;;;14.70;99.90;;;;;;7365235;19;20030;-71
2023/10/01 03:11:34;;;;;;;20.20;15.38;;;14.70;99.90;;;;;;7364672;19;20028;-62
2023/10/01 03:14:08;;;;;;;20.70;15.20;;;14.70;99.90;;;;;;7365928;19;20498;-62
2023/10/01 03:19:13;;;;;;;20.15;14.98;;;14.70;99.90;;;;;;7368239;19;20030;-62
2023/10/01 03:24:46;;;;;;;22.75;15.32;;;14.70;99.90;;;;;;7361746;19;20064;-70
2023/10/01 03:27:27;;;;;;;17.23;14.55;;;14.70;99.90;;;;;;7363113;19;20018;-71
2023/10/01 03:30:18;;;;;;;18.52;15.73;;;14.70;99.90;;;;;;7365604;19;20026;-70
2023/10/01 03:32:46;;;;;;;22.13;14.27;;;14.80;99.90;;;;;;7365470;19;20015;-70
2023/10/01 03:35:12;;;;;;;18.05;13.88;;;14.70;99.90;;;;;;7361809;19;20026;-70
2023/10/01 03:37:39;;;;;;;18.25;14.05;;;14.80;99.90;;;;;;7364252;19;20085;-70
2023/10/01 03:40:15;;;;;;;19.15;14.52;;;14.80;99.90;;;;;;7363023;19;20082;-70
2023/10/01 03:42:49;;;;;;;19.05;14.55;;;14.80;99.90;;;;;;7361766;19;20015;-70
2023/10/01 03:45:26;;;;;;;19.88;14.07;;;14.80;99.90;;;;;;7365532;19;20022;-70
2023/10/01 03:47:58;;;;;;;18.73;14.38;;;14.80;99.90;;;;;;7373859;19;20014;-70
2023/10/01 03:50:25;;;;;;;19.55;15.18;;;14.80;99.90;;;;;;7371089;19;20014;-71
2023/10/01 03:52:54;;;;;;;20.38;14.00;;;14.80;99.90;;;;;;7373421;19;20033;-62
2023/10/01 03:55:28;;;;;;;18.33;13.57;;;14.80;99.90;;;;;;7372850;19;20023;-62
2023/10/01 04:03:13;;;;;;;19.55;13.23;;;14.80;99.90;;;;;;7371590;19;20031;-70
2023/10/01 04:05:46;;;;;;;17.98;13.43;;;14.80;99.90;;;;;;7374722;19;20025;-70
2023/10/01 04:08:13;;;;;;;19.67;13.02;;;14.80;99.90;;;;;;7370574;19;20497;-70
2023/10/01 04:10:41;;;;;;;16.27;13.25;;;14.80;99.90;;;;;;7370298;19;20033;-71
2023/10/01 04:13:34;;;;;;;17.60;13.73;;;14.80;99.90;;;;;;7373313;19;21005;-62
2023/10/01 04:16:07;;;;;;;15.38;12.10;;;14.80;99.90;;;;;;7375384;19;20022;-62
2023/10/01 04:18:36;;;;;;;16.80;12.73;;;14.80;99.90;;;;;;7371405;19;20030;-62
2023/10/01 04:23:40;;;;;;;16.85;12.73;;;14.80;99.90;;;;;;7376744;19;20018;-61
2023/10/01 04:26:08;;;;;;;18.85;13.32;;;14.80;99.90;;;;;;7373192;19;20015;-62
2023/10/01 04:28:37;;;;;;;18.55;14.13;;;14.80;99.90;;;;;;7373087;19;20025;-62
2023/10/01 04:31:15;;;;;;;18.88;12.65;;;14.80;99.90;;;;;;7371003;19;20028;-61
2023/10/01 04:33:47;;;;;;;22.65;14.07;;;14.80;99.90;;;;;;7373023;19;20029;-62
2023/10/01 04:36:19;;;;;;;17.33;12.63;;;14.80;99.90;;;;;;7372911;19;20025;-69
2023/10/01 04:38:48;;;;;;;16.13;11.95;;;14.80;99.90;;;;;;7370312;19;20880;-70
2023/10/01 04:41:35;;;;;;;16.35;12.30;;;14.80;99.90;;;;;;7371808;19;20029;-70
2023/10/01 04:44:07;;;;;;;18.75;12.32;;;14.80;99.90;;;;;;7368598;19;20030;-70
2023/10/01 04:46:37;;;;;;;17.20;12.52;;;14.80;99.90;;;;;;7366282;19;20047;-70
2023/10/01 04:49:31;;;;;;;19.25;12.25;;;14.80;99.90;;;;;;7366798;19;20094;-70
2023/10/01 04:52:10;;;;;;;16.95;12.25;;;14.80;99.90;;;;;;7368307;19;20784;-62
2023/10/01 04:54:37;;;;;;;18.55;13.52;;;14.80;99.90;;;;;;7370797;19;20494;-62
2023/10/01 04:57:03;;;;;;;17.30;13.27;;;14.80;99.90;;;;;;7371664;19;20418;-63
2023/10/01 04:59:31;;;;;;;20.17;13.23;;;14.80;99.90;;;;;;7369873;19;20023;-62
2023/10/01 05:01:58;;;;;;;20.00;13.30;;;14.80;99.90;;;;;;7371163;19;20015;-62
2023/10/01 05:04:47;;;;;;;18.30;13.93;;;14.90;99.90;;;;;;7370578;19;20639;-62
2023/10/01 05:07:15;;;;;;;17.90;12.73;;;14.90;99.90;;;;;;7369111;19;20018;-62
2023/10/01 05:09:43;;;;;;;16.15;12.88;;;14.80;99.90;;;;;;7368697;19;20062;-62
2023/10/01 05:12:11;;;;;;;18.27;13.05;;;14.80;99.90;;;;;;7371043;19;20014;-62
2023/10/01 05:14:59;;;;;;;20.05;13.45;;;14.80;99.90;;;;;;7366077;19;20014;-63
2023/10/01 05:17:31;;;;;;;15.18;11.75;;;14.80;99.90;;;;;;7361411;19;20019;-62
2023/10/01 05:19:58;;;;;;;19.02;12.98;;;14.80;99.90;;;;;;7367782;19;20015;-63
2023/10/01 05:22:27;;;;;;;17.25;13.68;;;14.80;99.90;;;;;;7370068;19;20026;-61
2023/10/01 05:24:53;;;;;;;15.45;12.25;;;14.80;99.90;;;;;;7371138;19;20393;-62
2023/10/01 05:27:19;;;;;;;18.30;12.43;;;14.80;99.90;;;;;;7369773;19;20030;-64
2023/10/01 05:29:46;;;;;;;17.55;12.25;;;14.80;99.90;;;;;;7368100;19;20508;-62
2023/10/01 05:32:13;;;;;;;17.40;11.80;;;14.80;99.90;;;;;;7364690;19;20018;-63
2023/10/01 05:34:46;;;;;;;16.98;12.18;;;14.80;99.90;;;;;;7369885;19;20019;-62
2023/10/01 05:37:20;;;;;;;16.25;12.10;;;14.80;99.90;;;;;;7361992;19;20763;-71
2023/10/01 05:39:57;;;;;;;15.75;13.00;;;14.80;99.90;;;;;;7367095;19;21802;-70
2023/10/01 05:42:31;;;;;;;18.27;11.85;;;14.80;99.90;;;;;;7362180;19;20112;-70
2023/10/01 05:44:59;;;;;;;16.15;12.00;;;14.80;99.90;;;;;;7367321;19;20040;-69
2023/10/01 05:47:41;;;;;;;18.77;12.40;;;14.80;99.90;;;;;;7364404;19;20139;-72
2023/10/01 05:50:09;;;;;;;16.25;11.27;;;14.80;99.90;;;;;;7368662;19;20011;-71
2023/10/01 05:52:40;;;;;;;17.27;10.43;;;14.80;99.90;;;;;;7368507;19;20476;-71
2023/10/01 05:55:08;;;;;;;20.95;12.10;;;14.80;99.90;;;;;;7371486;19;20656;-70
2023/10/01 05:57:35;;;;;;;16.42;11.30;;;14.80;99.90;;;;;;7373744;19;20818;-70
2023/10/01 06:00:03;;;;;;;15.98;11.70;;;14.80;99.90;;;;;;7372959;19;20366;-70
2023/10/01 06:02:47;;;;;;;17.65;10.13;;;14.90;99.90;;;;;;7370700;19;20011;-70
2023/10/01 06:05:25;;;;;;;18.00;10.77;;;14.90;99.90;;;;;;7369844;19;20019;-69
2023/10/01 06:07:54;;;;;;;17.42;10.60;;;14.80;99.90;;;;;;7369219;19;20018;-68
2023/10/01 06:10:26;;;;;;;16.30;9.82;;;14.80;99.90;;;;;;7368226;19;20423;-68
2023/10/01 06:12:56;;;;;;;15.48;9.52;;;14.90;99.90;;;;;;7371920;19;20014;-70
2023/10/01 06:15:29;;;;;;;15.50;10.27;;;14.90;99.90;;;;;;7370698;19;20078;-70
2023/10/01 06:17:58;;;;;;;15.63;9.80;;;14.90;99.90;;;;;;7368910;19;20041;-70
2023/10/01 06:20:33;;;;;;;15.82;10.57;;;14.90;99.90;;;;;;7371140;19;20105;-71
2023/10/01 06:23:00;;;;;;;15.35;10.73;;;14.90;99.90;;;;;;7369674;19;20025;-70
2023/10/01 06:25:40;;;;;;;16.30;9.57;;;15.00;99.90;;;;;;7370893;19;20017;-72
2023/10/01 06:28:10;;;;;;;17.42;10.02;;;15.00;99.90;;;;;;7368097;19;20016;-70
2023/10/01 06:30:40;;;;;;;18.73;10.23;;;15.00;99.90;;;;;;7370748;19;20014;-70
2023/10/01 06:33:09;;;;;;;18.55;9.80;;;15.00;99.90;;;;;;7369954;19;20019;-70
2023/10/01 06:36:04;;;;;;;16.58;9.77;;;15.00;99.90;;;;;;7371557;19;20056;-70
2023/10/01 06:38:24;;;;;;;17.90;10.55;;;15.00;99.90;;;;;;7371517;19;20888;-70
2023/10/01 06:40:51;;;;;;;20.35;10.73;;;15.00;99.90;;;;;;7367573;19;20489;-70
2023/10/01 06:43:17;;;;;;;18.55;10.82;;;15.00;99.90;;;;;;7376244;19;20022;-68
2023/10/01 06:45:44;;;;;;;16.77;11.30;;;15.00;99.90;;;;;;7378430;19;20106;-68
2023/10/01 06:48:14;;;;;;;17.80;10.48;;;15.00;99.90;;;;;;7379909;19;20389;-68
2023/10/01 06:50:44;;;;;;;16.38;9.40;;;15.00;99.90;;;;;;7370604;19;20015;-65
2023/10/01 06:53:13;;;;;;;17.02;10.80;;;15.00;99.90;;;;;;7366078;19;20029;-65
2023/10/01 06:55:39;;;;;;;17.05;11.18;;;15.10;99.90;;;;;;7367112;19;20040;-65
2023/10/01 06:58:09;;;;;;;16.40;10.85;;;15.10;99.90;;;;;;7371028;19;20776;-65
2023/10/01 07:00:36;;;;;;;16.35;10.55;;;15.10;99.90;;;;;;7367714;19;20022;-64
2023/10/01 07:03:20;;;;;;;20.33;10.48;;;15.10;99.90;;;;;;7369291;19;20022;-65
2023/10/01 07:05:47;;;;;;;16.00;10.32;;;15.10;99.90;;;;;;7369227;19;20029;-66
2023/10/01 07:08:16;;;;;;;16.73;10.30;;;15.10;99.90;;;;;;7367539;19;20029;-66
2023/10/01 07:10:43;;;;;;;15.50;10.25;;;15.10;99.90;;;;;;7368569;19;20086;-65
2023/10/01 07:13:10;;;;;;;21.20;10.70;;;15.10;99.90;;;;;;7366041;19;20506;-68
2023/10/01 07:15:40;;;;;;;18.52;10.20;;;15.20;99.90;;;;;;7367946;19;20427;-67
2023/10/01 07:18:15;;;;;;;18.10;10.50;;;15.20;99.90;;;;;;7364584;19;20018;-67
2023/10/01 07:20:49;;;;;;;20.08;10.38;;;15.40;99.90;;;;;;7367620;19;20028;-67
2023/10/01 07:23:21;;;;;;;17.90;10.07;;;15.40;99.90;;;;;;7372758;19;20044;-67
2023/10/01 07:25:49;;;;;;;16.17;9.27;;;15.40;99.90;;;;;;7378154;19;20022;-72
2023/10/01 07:28:18;;;;;;;27.20;20.50;;;15.40;99.90;;;;;;7379556;19;20409;-68
2023/10/01 07:30:45;;;;;;;35.85;27.23;;;15.50;99.90;;;;;;7386211;19;20066;-75
2023/10/01 07:33:14;;;;;;;18.02;10.35;;;15.70;99.90;;;;;;7382080;19;20033;-73
2023/10/01 07:36:01;;;;;;;26.25;20.85;;;15.80;99.90;;;;;;7387137;19;20022;-74
2023/10/01 07:38:30;;;;;;;24.67;19.73;;;15.90;99.90;;;;;;7378784;19;20026;-65
2023/10/01 07:41:07;;;;;;;34.22;25.55;;;15.90;99.90;;;;;;7377259;19;20011;-64
2023/10/01 07:43:34;;;;;;;20.85;15.27;;;16.00;99.90;;;;;;7375866;19;20285;-74
2023/10/01 07:46:07;;;;;;;22.55;16.10;;;16.10;99.90;;;;;;7379286;19;20018;-72
2023/10/01 07:48:38;;;;;;;21.70;15.80;;;16.10;99.90;;;;;;7374022;19;20018;-75
2023/10/01 07:51:04;;;;;;;18.77;11.38;;;16.10;99.90;;;;;;7374847;19;20360;-74
2023/10/01 07:53:34;;;;;;;18.48;10.65;;;16.20;99.90;;;;;;7371001;19;20014;-71
2023/10/01 07:56:07;;;;;;;92.38;82.85;;;16.20;99.90;;;;;;7374182;19;20827;-65
2023/10/01 07:58:47;;;;;;;73.10;61.92;;;16.30;99.90;;;;;;7376242;19;20025;-69
2023/10/01 08:04:05;;;;;;;16.70;10.50;;;16.50;99.90;;;;;;7374107;19;20014;-71
2023/10/01 08:06:41;;;;;;;20.60;14.13;;;16.50;99.90;;;;;;7369462;19;20018;-70
2023/10/01 08:09:12;;;;;;;16.80;9.77;;;16.50;99.90;;;;;;7372152;19;20894;-71
2023/10/01 08:11:58;;;;;;;19.27;11.05;;;16.60;99.90;;;;;;7370348;19;20088;-69
2023/10/01 08:14:33;;;;;;;18.40;9.02;;;16.70;99.90;;;;;;7367623;19;20499;-73
2023/10/01 08:17:07;;;;;;;15.07;9.27;;;16.70;99.90;;;;;;7375785;19;20022;-72
2023/10/01 08:19:49;;;;;;;18.60;9.98;;;16.70;99.90;;;;;;7369050;19;20014;-73
2023/10/01 08:22:22;;;;;;;;;;;16.70;99.90;;;;;;7374882;19;20545;-71
2023/10/01 08:24:49;;;;;;;14.05;8.65;;;16.70;99.90;;;;;;7370923;19;20376;-71
2023/10/01 08:27:32;;;;;;;16.08;8.63;;;16.80;99.90;;;;;;7373169;19;20469;-76
2023/10/01 08:33:21;;;;;;;56.15;44.08;;;16.90;99.90;;;;;;7371759;19;20036;-75
2023/10/01 08:35:56;;;;;;;23.98;16.60;;;16.90;99.90;;;;;;7372028;19;20018;-75
2023/10/01 08:38:29;;;;;;;16.23;10.30;;;16.90;99.90;;;;;;7370720;19;20680;-75
2023/10/01 08:41:00;;;;;;;20.13;13.48;;;17.00;99.90;;;;;;7375638;19;20022;-75
2023/10/01 08:43:31;;;;;;;20.85;14.48;;;17.00;99.90;;;;;;7373065;19;20025;-74
2023/10/01 08:46:18;;;;;;;30.98;21.02;;;17.10;99.90;;;;;;7369663;19;20039;-75
2023/10/01 08:48:44;;;;;;;19.48;11.00;;;17.20;99.90;;;;;;7370079;19;20785;-75
2023/10/01 08:51:11;;;;;;;15.15;9.10;;;17.20;99.90;;;;;;7371104;19;20032;-76
2023/10/01 08:53:41;;;;;;;17.88;10.15;;;17.30;99.90;;;;;;7373520;19;20061;-74
2023/10/01 08:56:13;;;;;;;18.85;11.98;;;17.40;99.90;;;;;;7371397;19;20474;-73
2023/10/01 08:58:49;;;;;;;19.17;12.27;;;17.60;99.90;;;;;;7374883;19;20053;-73
2023/10/01 09:01:20;;;;;;;18.13;9.32;;;17.80;99.90;;;;;;7372776;19;20018;-72
2023/10/01 09:03:51;;;;;;;17.67;9.52;;;18.00;99.90;;;;;;7371720;19;20738;-72
2023/10/01 09:06:25;;;;;;;17.17;9.52;;;18.40;99.90;;;;;;7364816;19;20023;-71
2023/10/01 09:08:55;;;;;;;13.13;8.38;;;18.80;99.90;;;;;;7369912;19;20455;-72
2023/10/01 09:11:35;;;;;;;16.40;9.63;;;19.10;99.90;;;;;;7358393;19;20492;-73
2023/10/01 09:14:17;;;;;;;15.70;8.68;;;19.60;99.90;;;;;;7370390;19;20025;-72
2023/10/01 09:17:24;;;;;;;;;;;20.00;99.90;;;;;;7370478;19;20834;-71
2023/10/01 09:19:52;;;;;;;19.15;10.63;;;20.50;99.90;;;;;;7367080;19;19919;-72
2023/10/01 09:22:40;;;;;;;21.80;12.55;;;20.80;99.90;;;;;;7364169;19;20538;-70
2023/10/01 09:25:26;;;;;;;16.38;10.40;;;21.10;99.90;;;;;;7369916;19;20018;-71
2023/10/01 09:27:57;;;;;;;17.27;11.73;;;21.70;99.90;;;;;;7364194;19;20086;-73
2023/10/01 09:30:27;;;;;;;15.55;8.23;;;22.10;99.90;;;;;;7366772;19;20056;-73
2023/10/01 09:33:05;;;;;;;12.40;7.85;;;22.70;99.90;;;;;;7371622;19;20015;-75
2023/10/01 09:35:59;;;;;;;14.95;9.35;;;22.70;99.90;;;;;;7371085;19;20021;-74
2023/10/01 09:38:32;;;;;;;15.95;8.65;;;22.90;99.90;;;;;;7366468;19;20102;-74
2023/10/01 09:41:00;;;;;;;14.25;8.40;;;22.70;99.90;;;;;;7369356;19;20026;-74
2023/10/01 09:43:34;;;;;;;13.63;9.00;;;22.40;99.90;;;;;;7365186;19;20461;-74
2023/10/01 09:46:01;;;;;;;14.88;8.30;;;22.10;99.90;;;;;;7364543;19;20014;-74
2023/10/01 09:51:13;;;;;;;13.93;9.15;;;21.30;99.90;;;;;;7369640;19;20878;-72
2023/10/01 09:53:48;;;;;;;21.42;11.90;;;21.20;99.90;;;;;;7368295;19;20359;-72
2023/10/01 09:57:08;;;;;;;18.75;11.70;;;21.00;99.90;;;;;;7375576;19;20030;-74
2023/10/01 09:59:07;;;;;;;16.02;10.10;;;21.10;99.90;;;;;;7368823;19;20022;-74
2023/10/01 10:01:35;;;;;;;;;;;21.40;99.90;;;;;;7381036;19;20421;-72
2023/10/01 10:04:03;;;;;;;13.57;8.88;;;21.20;99.90;;;;;;7374126;19;19974;-69
2023/10/01 10:06:31;;;;;;;17.10;9.48;;;21.10;99.90;;;;;;7370440;19;20018;-71
2023/10/01 10:09:03;;;;;;;14.65;7.95;;;21.10;99.90;;;;;;7372433;19;20044;-69
2023/10/01 10:11:43;;;;;;;15.23;8.48;;;21.30;99.90;;;;;;7369749;19;20436;-73
2023/10/01 10:14:25;;;;;;;20.83;8.88;;;21.30;99.90;;;;;;7371661;19;20694;-72
2023/10/01 10:16:56;;;;;;;18.23;9.45;;;21.00;99.90;;;;;;7370833;19;21113;-71
2023/10/01 10:19:23;;;;;;;15.52;8.50;;;21.20;99.90;;;;;;7372007;19;20595;-72
2023/10/01 10:24:35;;;;;;;14.93;8.50;;;22.00;99.90;;;;;;7365179;19;20873;-72
2023/10/01 10:27:07;;;;;;;16.95;9.02;;;22.30;99.90;;;;;;7372199;19;20051;-72
2023/10/01 10:29:58;;;;;;;17.00;8.63;;;22.40;99.90;;;;;;7365196;19;20035;-72
2023/10/01 10:32:31;;;;;;;14.05;7.72;;;22.00;99.90;;;;;;7368098;19;20087;-71
2023/10/01 10:35:03;;;;;;;16.80;8.98;;;21.90;99.90;;;;;;7369558;19;20378;-70
2023/10/01 10:42:59;;;;;;;14.75;8.57;;;21.10;99.90;;;;;;7374778;19;20026;-74
2023/10/01 10:45:42;;;;;;;15.55;8.20;;;20.90;99.90;;;;;;7382826;19;20791;-74
2023/10/01 10:48:10;;;;;;;21.90;8.73;;;20.80;99.90;;;;;;7382689;19;20021;-74
2023/10/01 10:50:50;;;;;;;15.40;8.45;;;20.90;99.90;;;;;;7377580;19;20592;-75
2023/10/01 10:53:23;;;;;;;14.85;8.23;;;21.20;99.90;;;;;;7374665;19;20015;-74
2023/10/01 10:56:04;;;;;;;13.77;8.55;;;21.40;99.90;;;;;;7376564;19;20732;-74
2023/10/01 10:58:39;;;;;;;15.52;8.20;;;21.50;99.90;;;;;;7380437;19;20090;-74
2023/10/01 11:01:16;;;;;;;15.55;8.10;;;21.80;99.90;;;;;;7374989;19;20082;-71
2023/10/01 11:03:48;;;;;;;16.00;10.05;;;21.90;99.90;;;;;;7359073;19;20027;-73
2023/10/01 11:06:22;;;;;;;19.27;11.85;;;22.30;99.90;;;;;;7368652;19;20030;-72
2023/10/01 11:08:50;;;;;;;30.75;23.67;;;22.50;99.90;;;;;;7370529;19;20026;-69
2023/10/01 11:11:25;;;;;;;22.33;15.52;;;22.40;99.90;;;;;;7364768;19;20073;-69
2023/10/01 11:14:00;;;;;;;24.88;17.13;;;22.40;99.90;;;;;;7365675;19;20052;-69
2023/10/01 11:16:36;;;;;;;18.83;13.32;;;22.70;99.90;;;;;;7365306;19;20018;-69
2023/10/01 11:19:14;;;;;;;18.73;11.13;;;23.40;99.90;;;;;;7371270;19;20604;-68
2023/10/01 11:21:55;;;;;;;17.65;11.32;;;23.70;99.90;;;;;;7366401;19;20040;-68
2023/10/01 11:24:25;;;;;;;18.08;11.32;;;23.60;99.90;;;;;;7364832;19;20028;-68
2023/10/01 11:27:20;;;;;;;22.27;13.15;;;23.70;99.90;;;;;;7366278;19;20019;-69
2023/10/01 11:30:12;;;;;;;18.98;10.30;;;23.90;99.90;;;;;;7366324;19;20015;-67
2023/10/01 11:33:12;;;;;;;14.38;7.85;;;23.70;99.90;;;;;;7366588;19;20018;-68
2023/10/01 11:36:09;;;;;;;15.27;7.72;;;23.60;99.90;;;;;;7361073;19;20011;-68
2023/10/01 11:38:43;;;;;;;17.15;8.00;;;23.50;99.90;;;;;;7364025;19;20018;-67
2023/10/01 11:41:09;;;;;;;18.95;10.15;;;23.30;99.90;;;;;;7365059;19;20025;-67
2023/10/01 11:43:59;;;;;;;18.80;10.25;;;23.40;99.90;;;;;;7360195;19;20059;-67
2023/10/01 11:46:32;;;;;;;21.27;11.57;;;23.50;99.90;;;;;;7363134;19;20054;-67
2023/10/01 11:49:16;;;;;;;16.95;10.60;;;23.30;99.90;;;;;;7363945;19;20019;-67
2023/10/01 11:51:54;;;;;;;17.70;11.38;;;23.30;99.90;;;;;;7367286;19;20018;-68
2023/10/01 11:55:18;;;;;;;27.08;20.38;;;23.20;99.90;;;;;;7359548;19;20049;-67
2023/10/01 11:57:23;;;;;;;17.63;8.77;;;23.20;99.90;;;;;;7364985;19;20014;-68
2023/10/01 11:59:56;;;;;;;17.35;9.40;;;23.30;99.90;;;;;;7367266;19;20027;-67
2023/10/01 12:02:29;;;;;;;20.95;13.07;;;23.50;99.90;;;;;;7366942;19;20086;-68
2023/10/01 12:04:57;;;;;;;16.45;9.25;;;23.80;99.90;;;;;;7370074;19;20090;-67
2023/10/01 12:07:32;;;;;;;17.38;9.27;;;24.00;99.90;;;;;;7368221;19;20052;-68
2023/10/01 12:09:59;;;;;;;17.75;9.73;;;24.30;99.90;;;;;;7372026;19;20018;-67
2023/10/01 12:12:36;;;;;;;16.52;8.55;;;24.20;99.90;;;;;;7370912;19;20025;-67
2023/10/01 12:18:14;;;;;;;25.58;19.35;;;24.20;99.90;;;;;;7372454;19;20034;-68
2023/10/01 12:20:49;;;;;;;18.25;12.13;;;24.40;99.90;;;;;;7374912;19;20015;-69
2023/10/01 12:23:19;;;;;;;15.13;9.18;;;24.50;99.90;;;;;;7372475;19;20061;-69
2023/10/01 12:26:32;;;;;;;13.70;8.10;;;24.50;99.90;;;;;;7372053;19;20078;-70
2023/10/01 12:31:31;;;;;;;16.65;8.05;;;24.30;99.90;;;;;;7371731;19;20470;-72
2023/10/01 12:34:00;;;;;;;14.65;9.05;;;24.20;99.90;;;;;;7369556;19;20035;-74
2023/10/01 12:36:42;;;;;;;13.63;8.35;;;24.30;99.90;;;;;;7367263;19;20074;-74
2023/10/01 12:46:54;;;;;;;14.95;8.20;;;25.70;99.90;;;;;;7375698;19;20010;-73
2023/10/01 12:49:21;;;;;;;13.80;7.68;;;25.80;99.90;;;;;;7371139;19;20029;-74
2023/10/01 12:51:54;;;;;;;12.32;6.72;;;26.10;99.90;;;;;;7378412;19;20022;-78
2023/10/01 12:54:27;;;;;;;15.73;8.07;;;26.10;99.90;;;;;;7372409;19;20021;-74
2023/10/01 12:57:12;;;;;;;13.02;7.05;;;26.10;99.90;;;;;;7374182;19;20509;-69
2023/10/01 12:59:41;;;;;;;11.88;7.15;;;26.20;99.90;;;;;;7369896;19;20783;-70
2023/10/01 13:07:41;;;;;;;12.50;8.27;;;25.80;99.90;;;;;;7371439;19;20584;-69
2023/10/01 13:10:08;;;;;;;12.23;7.18;;;25.80;99.90;;;;;;7367017;19;20023;-68
2023/10/01 13:15:29;;;;;;;12.98;7.72;;;25.60;99.90;;;;;;7367251;19;20053;-68
2023/10/01 13:18:00;;;;;;;14.75;7.50;;;25.50;99.00;;;;;;7366126;19;20086;-70
2023/10/01 13:20:46;;;;;;;15.93;6.88;;;25.50;99.20;;;;;;7368351;19;20034;-68
2023/10/01 13:23:12;;;;;;;13.23;7.40;;;26.00;99.40;;;;;;7367196;19;20052;-69
2023/10/01 13:25:46;;;;;;;13.10;7.15;;;25.90;99.10;;;;;;7368652;19;20717;-67
2023/10/01 13:28:19;;;;;;;12.68;6.93;;;25.80;98.30;;;;;;7379579;19;20026;-68
2023/10/01 13:33:23;;;;;;;10.50;6.28;;;26.00;98.90;;;;;;7400891;19;20006;-71
2023/10/01 13:35:56;;;;;;;13.80;8.10;;;25.60;98.70;;;;;;7375113;19;20238;-73
2023/10/01 14:09:48;;;;;;;12.60;8.15;;;25.30;96.90;;;;;;7369347;19;20690;-68
2023/10/01 14:12:42;;;;;;;13.27;7.50;;;24.80;98.40;;;;;;7389035;19;20037;-70
2023/10/01 14:15:23;;;;;;;13.60;7.57;;;24.80;99.20;;;;;;7386317;19;20667;-72
2023/10/01 14:17:53;;;;;;;19.85;11.10;;;24.60;99.20;;;;;;7376035;19;20387;-70
2023/10/01 14:23:40;;;;;;;18.10;12.48;;;24.10;99.90;;;;;;7386102;19;20050;-73
2023/10/01 14:26:26;;;;;;;17.17;10.88;;;24.00;99.90;;;;;;7391789;19;20056;-72
2023/10/01 14:28:56;;;;;;;14.23;9.30;;;23.70;99.90;;;;;;7398260;19;20011;-71
2023/10/01 14:34:17;;;;;;;17.38;10.95;;;23.50;99.90;;;;;;7395596;19;20022;-70
2023/10/01 14:36:44;;;;;;;18.02;7.80;;;23.50;99.90;;;;;;7394264;19;20035;-70
2023/10/01 14:39:18;;;;;;;14.30;7.82;;;23.30;99.90;;;;;;7395486;19;20421;-70
2023/10/01 14:41:46;;;;;;;12.77;7.53;;;23.20;99.90;;;;;;7394556;19;20028;-71
2023/10/01 14:44:15;;;;;;;15.13;9.43;;;23.10;99.90;;;;;;7383526;19;20480;-69